createdAt,value
2023-01-22T00:00:12.438Z,103269.75
2023-01-22T00:02:37.061Z,103274.50
2023-01-22T00:04:58.758Z,103272.59
2023-01-22T00:07:20.405Z,103274.66
2023-01-22T00:09:46.854Z,103278.41
2023-01-22T00:12:09.859Z,103274.44
2023-01-22T00:14:31.765Z,103278.34
2023-01-22T00:16:53.587Z,103282.28
2023-01-22T00:19:15.340Z,103278.94
2023-01-22T00:21:39.184Z,103278.50
2023-01-22T00:24:01.823Z,103276.00
2023-01-22T00:26:23.514Z,103284.28
2023-01-22T00:28:45.813Z,103271.81
2023-01-22T00:31:08.343Z,103277.41
2023-01-22T00:33:31.004Z,103276.75
2023-01-22T00:35:52.775Z,103279.03
2023-01-22T00:38:16.397Z,103279.59
2023-01-22T00:40:38.040Z,103276.25
2023-01-22T00:42:59.638Z,103269.19
2023-01-22T00:45:21.332Z,103260.41
2023-01-22T00:47:43.181Z,103261.66
2023-01-22T00:50:05.849Z,103256.44
2023-01-22T00:52:27.729Z,103257.47
2023-01-22T00:54:49.368Z,103255.78
2023-01-22T00:57:11.574Z,103257.47
2023-01-22T00:59:33.254Z,103252.06
2023-01-22T01:01:55.215Z,103253.94
2023-01-22T01:04:16.954Z,103248.53
2023-01-22T01:06:39.153Z,103250.19
2023-01-22T01:09:01.851Z,103248.53
2023-01-22T01:11:25.371Z,103255.19
2023-01-22T01:15:07.639Z,103250.25
2023-01-22T01:17:29.383Z,103236.91
2023-01-22T01:19:51.365Z,103249.22
2023-01-22T01:22:13.163Z,103235.28
2023-01-22T01:24:36.510Z,103242.38
2023-01-22T01:26:58.225Z,103248.22
2023-01-22T01:29:19.930Z,103238.28
2023-01-22T01:31:41.723Z,103240.75
2023-01-22T01:34:04.808Z,103245.97
2023-01-22T01:36:47.056Z,103248.69
2023-01-22T01:39:09.879Z,103252.22
2023-01-22T01:41:31.647Z,103244.94
2023-01-22T01:44:11.978Z,103246.63
2023-01-22T01:46:52.889Z,103241.22
2023-01-22T01:49:34.862Z,103232.69
2023-01-22T01:52:02.844Z,103233.34
2023-01-22T01:54:25.049Z,103222.13
2023-01-22T01:56:56.082Z,103216.31
2023-01-22T01:59:21.214Z,103198.84
2023-01-22T02:02:35.874Z,103207.59
2023-01-22T02:04:57.974Z,103218.25
2023-01-22T02:07:20.928Z,103227.00
2023-01-22T02:09:42.780Z,103214.94
2023-01-22T02:12:05.330Z,103214.13
2023-01-22T02:14:33.076Z,103214.38
2023-01-22T02:17:22.356Z,103203.59
2023-01-22T02:21:06.698Z,103198.81
2023-01-22T02:23:31.849Z,103191.53
2023-01-22T02:25:53.913Z,103203.81
2023-01-22T02:28:15.609Z,103208.84
2023-01-22T02:30:37.599Z,103199.47
2023-01-22T02:32:59.295Z,103207.41
2023-01-22T02:35:21.086Z,103207.22
2023-01-22T02:37:43.750Z,103206.16
2023-01-22T02:40:06.331Z,103212.41
2023-01-22T02:42:28.243Z,103213.69
2023-01-22T02:44:52.810Z,103219.75
2023-01-22T02:48:30.410Z,103219.97
2023-01-22T02:50:52.225Z,103221.63
2023-01-22T02:53:13.944Z,103212.50
2023-01-22T02:55:37.323Z,103221.63
2023-01-22T02:57:59.130Z,103207.09
2023-01-22T03:00:21.137Z,103211.84
2023-01-22T03:02:42.826Z,103218.94
2023-01-22T03:05:05.027Z,103217.91
2023-01-22T03:07:34.502Z,103221.25
2023-01-22T03:09:57.141Z,103211.03
2023-01-22T03:12:18.972Z,103205.00
2023-01-22T03:14:59.429Z,103203.97
2023-01-22T03:17:41.175Z,103200.88
2023-01-22T03:20:21.932Z,103195.88
2023-01-22T03:22:43.678Z,103194.66
2023-01-22T03:25:06.207Z,103202.38
2023-01-22T03:27:31.270Z,103188.59
2023-01-22T03:29:53.392Z,103181.75
2023-01-22T03:32:16.691Z,103185.94
2023-01-22T03:34:38.904Z,103189.69
2023-01-22T03:37:00.918Z,103190.53
2023-01-22T03:39:23.388Z,103186.75
2023-01-22T03:41:46.054Z,103179.91
2023-01-22T03:44:11.903Z,103177.63
2023-01-22T03:46:34.819Z,103183.06
2023-01-22T03:48:57.638Z,103162.19
2023-01-22T03:51:22.637Z,103172.81
2023-01-22T03:53:45.783Z,103180.34
2023-01-22T03:56:13.562Z,103170.75
2023-01-22T03:58:35.790Z,103168.66
2023-01-22T04:01:03.106Z,103176.19
2023-01-22T04:04:05.916Z,103177.66
2023-01-22T04:06:28.840Z,103174.75
2023-01-22T04:08:54.562Z,103183.28
2023-01-22T04:11:22.239Z,103173.28
2023-01-22T04:13:45.214Z,103174.97
2023-01-22T04:16:08.628Z,103187.03
2023-01-22T04:19:00.414Z,103166.81
2023-01-22T04:21:45.384Z,103180.19
2023-01-22T04:24:09.012Z,103176.41
2023-01-22T04:26:30.732Z,103161.00
2023-01-22T04:28:55.158Z,103165.19
2023-01-22T04:31:18.220Z,103168.53
2023-01-22T04:33:47.147Z,103162.03
2023-01-22T04:36:22.089Z,103162.69
2023-01-22T04:38:44.358Z,103161.84
2023-01-22T04:41:06.216Z,103164.97
2023-01-22T04:43:27.935Z,103166.66
2023-01-22T04:45:51.495Z,103161.00
2023-01-22T04:48:15.679Z,103159.75
2023-01-22T04:50:38.618Z,103165.81
2023-01-22T04:53:01.400Z,103155.78
2023-01-22T04:55:25.007Z,103171.84
2023-01-22T04:57:58.607Z,103163.09
2023-01-22T05:00:20.976Z,103161.00
2023-01-22T05:02:42.826Z,103153.91
2023-01-22T05:05:07.296Z,103156.22
2023-01-22T08:44:58.083Z,103227.16
2023-01-22T08:47:19.816Z,103226.75
2023-01-22T08:49:41.518Z,103234.47
2023-01-22T08:52:03.544Z,103231.75
2023-01-22T08:54:26.276Z,103229.66
2023-01-22T08:56:51.150Z,103236.34
2023-01-22T08:59:12.848Z,103231.13
2023-01-22T09:01:34.925Z,103235.28
2023-01-22T09:03:56.706Z,103239.06
2023-01-22T09:06:18.446Z,103238.00
2023-01-22T09:08:40.197Z,103239.06
2023-01-22T09:11:05.408Z,103241.34
2023-01-22T09:13:27.077Z,103237.81
2023-01-22T09:15:48.786Z,103245.75
2023-01-22T09:18:10.454Z,103239.06
2023-01-22T09:20:32.046Z,103237.56
2023-01-22T09:22:56.469Z,103237.78
2023-01-22T09:25:18.305Z,103244.66
2023-01-22T09:27:40.060Z,103231.09
2023-01-22T09:30:01.951Z,103233.59
2023-01-22T09:32:23.749Z,103238.22
2023-01-22T09:34:45.404Z,103242.59
2023-01-22T09:37:08.677Z,103254.06
2023-01-22T09:39:30.229Z,103246.56
2023-01-22T09:41:59.281Z,103238.22
2023-01-22T09:44:44.656Z,103249.06
2023-01-22T09:47:29.546Z,103246.56
2023-01-22T09:49:58.886Z,103247.19
2023-01-22T09:52:24.694Z,103249.06
2023-01-22T09:54:47.104Z,103250.09
2023-01-22T09:57:30.667Z,103258.25
2023-01-22T09:59:56.717Z,103262.00
2023-01-22T10:02:34.154Z,103263.06
2023-01-22T10:05:27.906Z,103252.22
2023-01-22T10:08:05.537Z,103257.00
2023-01-22T10:10:29.865Z,103269.53
2023-01-22T10:12:58.137Z,103255.97
2023-01-22T10:15:24.172Z,103260.56
2023-01-22T10:17:47.934Z,103260.75
2023-01-22T10:20:14.380Z,103264.09
2023-01-22T10:22:36.094Z,103253.25
2023-01-22T10:24:58.503Z,103267.25
2023-01-22T10:27:33.237Z,103259.09
2023-01-22T10:29:59.686Z,103268.06
2023-01-22T10:32:26.297Z,103269.34
2023-01-22T10:35:20.306Z,103268.06
2023-01-22T10:37:47.821Z,103262.41
2023-01-22T10:40:30.992Z,103261.78
2023-01-22T10:43:15.382Z,103259.06
2023-01-22T10:45:38.716Z,103244.44
2023-01-22T10:48:19.876Z,103251.31
2023-01-22T10:50:43.432Z,103250.03
2023-01-22T10:53:19.535Z,103247.75
2023-01-22T10:55:42.833Z,103254.41
2023-01-22T10:58:16.338Z,103253.97
2023-01-22T11:00:51.539Z,103246.44
2023-01-22T11:03:22.506Z,103239.53
2023-01-22T11:05:47.331Z,103244.78
2023-01-22T11:08:19.171Z,103244.53
2023-01-22T11:11:02.013Z,103239.75
2023-01-22T11:14:02.537Z,103241.63
2023-01-22T11:16:25.559Z,103247.50
2023-01-22T11:19:01.008Z,103239.34
2023-01-22T11:21:56.331Z,103235.13
2023-01-22T11:24:22.793Z,103236.81
2023-01-22T11:27:12.829Z,103225.06
2023-01-22T11:30:00.200Z,103233.03
2023-01-22T11:33:00.830Z,103226.50
2023-01-22T11:35:39.678Z,103231.53
2023-01-22T11:38:15.714Z,103223.97
2023-01-22T11:41:23.787Z,103229.22
2023-01-22T11:44:03.786Z,103222.94
2023-01-22T11:47:07.605Z,103225.03
2023-01-22T11:49:58.252Z,103210.00
2023-01-22T11:52:48.666Z,103210.00
2023-01-22T11:55:19.383Z,103214.19
2023-01-22T11:57:53.880Z,103209.19
2023-01-22T12:00:40.494Z,103204.94
2023-01-22T12:03:48.287Z,103198.03
2023-01-22T12:07:07.241Z,103212.47
2023-01-22T12:09:51.791Z,103205.38
2023-01-22T12:12:33.618Z,103194.88
2023-01-22T12:15:12.440Z,103193.41
2023-01-22T12:18:05.224Z,103196.50
2023-01-22T12:20:38.643Z,103181.84
2023-01-22T12:23:25.065Z,103185.78
2023-01-22T12:26:02.734Z,103187.22
2023-01-22T12:28:34.577Z,103195.19
2023-01-22T12:31:26.266Z,103195.63
2023-01-22T12:33:47.991Z,103199.38
2023-01-22T12:36:16.488Z,103192.28
2023-01-22T12:39:23.249Z,103204.19
2023-01-22T12:42:07.891Z,103210.91
2023-01-22T12:44:43.632Z,103211.97
2023-01-22T12:47:17.604Z,103213.63
2023-01-22T12:49:52.930Z,103206.75
2023-01-22T12:52:32.495Z,103208.88
2023-01-22T12:54:56.140Z,103214.88
2023-01-22T12:57:25.770Z,103214.31
2023-01-22T12:59:51.823Z,103213.25
2023-01-22T13:02:26.700Z,103206.34
2023-01-22T13:04:48.755Z,103210.72
2023-01-22T13:07:28.829Z,103209.91
2023-01-22T13:10:20.457Z,103215.97
2023-01-22T13:12:49.364Z,103224.13
2023-01-22T13:15:25.743Z,103218.22
2023-01-22T13:18:15.042Z,103222.84
2023-01-22T13:20:58.749Z,103219.94
2023-01-22T13:23:21.702Z,103220.38
2023-01-22T13:25:43.453Z,103217.66
2023-01-22T13:28:06.123Z,103212.00
2023-01-22T13:30:31.038Z,103219.13
2023-01-22T13:33:16.192Z,103215.97
2023-01-22T13:35:46.176Z,103212.63
2023-01-22T13:38:17.897Z,103215.13
2023-01-22T13:40:50.815Z,103219.31
2023-01-22T13:43:19.632Z,103221.22
2023-01-22T13:45:41.450Z,103221.22
2023-01-22T13:48:06.371Z,103221.22
2023-01-22T13:50:31.226Z,103219.31
2023-01-22T13:52:53.662Z,103224.97
2023-01-22T13:55:20.652Z,103232.53
2023-01-22T13:57:50.921Z,103227.47
2023-01-22T14:00:32.344Z,103230.19
2023-01-22T14:02:55.266Z,103235.44
2023-01-22T14:05:27.535Z,103234.16
2023-01-22T14:07:50.729Z,103232.72
2023-01-22T14:10:20.516Z,103235.44
2023-01-22T14:12:42.511Z,103236.69
2023-01-22T14:15:19.669Z,103245.88
2023-01-22T14:17:41.464Z,103245.06
2023-01-22T14:20:04.491Z,103244.44
2023-01-22T14:22:26.682Z,103248.22
2023-01-22T14:24:52.470Z,103249.25
2023-01-22T14:27:14.245Z,103244.88
2023-01-22T14:29:35.920Z,103247.59
2023-01-22T14:31:57.963Z,103235.03
2023-01-22T14:34:19.965Z,103250.53
2023-01-22T14:36:41.739Z,103253.25
2023-01-22T14:39:05.196Z,103248.88
2023-01-22T14:41:28.326Z,103251.78
2023-01-22T14:43:50.036Z,103255.97
2023-01-22T14:46:11.769Z,103257.03
2023-01-22T14:48:33.672Z,103256.41
2023-01-22T14:50:55.407Z,103257.03
2023-01-22T14:53:19.498Z,103266.84
2023-01-22T14:55:42.680Z,103267.66
2023-01-22T14:58:06.065Z,103266.00
2023-01-22T15:00:29.488Z,103274.78
2023-01-22T15:02:56.224Z,103265.56
2023-01-22T15:05:18.130Z,103271.00
2023-01-22T15:07:40.196Z,103263.72
2023-01-22T15:10:05.527Z,103257.22
2023-01-22T15:12:27.484Z,103267.25
2023-01-22T15:14:49.172Z,103258.03
2023-01-22T15:17:10.809Z,103260.75
2023-01-22T15:19:40.937Z,103254.06
2023-01-22T15:22:03.665Z,103257.84
2023-01-22T15:24:26.811Z,103271.19
2023-01-22T15:26:48.768Z,103261.38
2023-01-22T15:29:13.384Z,103262.44
2023-01-22T15:31:35.684Z,103261.38
2023-01-22T15:34:01.982Z,103267.44
2023-01-22T15:36:24.404Z,103267.19
2023-01-22T15:38:46.118Z,103272.88
2023-01-22T15:41:19.202Z,103276.03
2023-01-22T15:43:40.884Z,103276.03
2023-01-22T15:46:02.561Z,103270.59
2023-01-22T15:48:26.450Z,103268.72
2023-01-22T15:50:48.221Z,103276.03
2023-01-22T15:53:10.005Z,103267.66
2023-01-22T15:55:31.657Z,103269.72
2023-01-22T15:57:53.453Z,103278.69
2023-01-22T16:00:15.563Z,103269.28
2023-01-22T16:02:37.564Z,103266.78
2023-01-22T16:04:59.286Z,103279.75
2023-01-22T16:07:20.928Z,103277.88
2023-01-22T16:09:42.629Z,103284.13
2023-01-22T16:12:04.833Z,103279.75
2023-01-22T16:14:31.741Z,103284.13
2023-01-22T16:16:53.495Z,103274.13
2023-01-22T16:19:15.590Z,103262.19
2023-01-22T16:21:37.299Z,103264.06
2023-01-22T16:24:01.860Z,103275.16
2023-01-22T16:26:27.952Z,103274.13
2023-01-22T16:28:52.801Z,103278.94
2023-01-22T18:13:09.103Z,103342.47
2023-01-22T18:15:31.288Z,103337.03
2023-01-22T18:17:53.668Z,103340.38
2023-01-22T18:20:16.478Z,103336.59
2023-01-22T18:22:39.088Z,103338.25
2023-01-22T18:25:01.270Z,103332.41
2023-01-22T18:27:24.417Z,103325.06
2023-01-22T18:29:46.607Z,103325.91
2023-01-22T18:32:08.963Z,103325.53
2023-01-22T18:34:31.118Z,103334.28
2023-01-22T18:36:53.644Z,103337.84
2023-01-22T18:39:18.760Z,103336.34
2023-01-22T18:41:41.484Z,103340.75
2023-01-22T18:44:03.504Z,103338.88
2023-01-22T18:46:29.296Z,103336.97
2023-01-22T18:48:55.432Z,103335.31
2023-01-22T18:51:17.080Z,103339.94
2023-01-22T18:53:41.314Z,103336.13
2023-01-22T18:56:05.856Z,103346.81
2023-01-22T18:58:30.946Z,103338.66
2023-01-22T19:00:54.972Z,103336.97
2023-01-22T19:03:16.716Z,103336.13
2023-01-22T19:05:39.555Z,103334.25
2023-01-22T19:08:01.193Z,103341.19
2023-01-22T19:10:23.227Z,103351.25
2023-01-22T19:12:46.321Z,103347.47
2023-01-22T19:15:09.235Z,103347.47
2023-01-22T19:17:30.822Z,103349.38
2023-01-22T19:19:52.545Z,103354.81
2023-01-22T19:22:14.204Z,103351.03
2023-01-22T19:24:36.237Z,103357.28
2023-01-22T19:26:58.925Z,103361.72
2023-01-22T19:29:25.495Z,103361.72
2023-01-22T19:31:52.087Z,103365.25
2023-01-22T19:34:23.138Z,103366.31
2023-01-22T19:36:44.912Z,103361.72
2023-01-22T19:39:12.090Z,103357.28
2023-01-22T19:41:33.808Z,103361.91
2023-01-22T19:43:59.878Z,103362.75
2023-01-22T19:46:22.277Z,103360.00
2023-01-22T19:48:44.220Z,103358.16
2023-01-22T19:51:13.109Z,103359.41
2023-01-22T19:53:36.694Z,103363.41
2023-01-22T19:55:58.374Z,103376.56
2023-01-22T19:58:21.220Z,103372.16
2023-01-22T20:00:42.871Z,103375.13
2023-01-22T20:03:07.663Z,103373.22
2023-01-22T20:05:29.402Z,103363.59
2023-01-22T20:07:56.175Z,103367.97
2023-01-22T20:10:19.159Z,103377.19
2023-01-22T20:12:43.199Z,103377.41
2023-01-22T20:15:05.693Z,103382.22
2023-01-22T20:17:27.264Z,103381.78
2023-01-22T20:19:48.886Z,103383.84
2023-01-22T20:22:11.187Z,103389.72
2023-01-22T20:24:34.808Z,103391.38
2023-01-22T20:26:58.086Z,103385.50
2023-01-22T20:29:19.838Z,103397.25
2023-01-22T20:31:41.758Z,103396.38
2023-01-22T20:34:04.530Z,103402.44
2023-01-22T20:36:29.059Z,103402.44
2023-01-22T20:38:53.144Z,103398.28
2023-01-22T20:41:17.905Z,103402.69
2023-01-22T20:43:42.026Z,103403.06
2023-01-22T20:46:08.848Z,103400.78
2023-01-22T20:48:32.026Z,103402.69
2023-01-22T20:50:53.728Z,103393.44
2023-01-22T20:53:15.374Z,103393.88
2023-01-22T20:55:38.682Z,103396.38
2023-01-22T20:58:00.298Z,103394.47
2023-01-22T21:00:22.069Z,103397.19
2023-01-22T21:02:43.769Z,103394.72
2023-01-22T21:05:05.663Z,103396.59
2023-01-22T21:07:28.549Z,103393.03
2023-01-22T21:09:50.203Z,103405.59
2023-01-22T21:12:13.162Z,103403.91
2023-01-22T21:14:35.162Z,103391.34
2023-01-22T21:16:56.947Z,103390.28
2023-01-22T21:19:26.137Z,103393.88
2023-01-22T21:21:47.895Z,103399.31
2023-01-22T21:24:09.738Z,103394.72
2023-01-22T21:26:33.032Z,103401.59
2023-01-22T21:28:59.235Z,103409.75
2023-01-22T21:31:22.932Z,103397.44
2023-01-22T21:33:45.494Z,103396.38
2023-01-22T21:36:09.964Z,103402.63
2023-01-22T21:38:31.520Z,103396.16
2023-01-22T21:40:53.225Z,103404.31
2023-01-22T21:43:34.439Z,103403.25
2023-01-22T21:46:17.778Z,103407.44
2023-01-22T21:48:39.397Z,103409.75
2023-01-22T21:51:02.718Z,103412.69
2023-01-22T21:53:24.426Z,103406.63
2023-01-22T21:55:53.518Z,103409.13
2023-01-22T21:58:15.191Z,103406.41
2023-01-22T22:00:36.803Z,103395.53
2023-01-22T22:02:58.498Z,103405.78
2023-01-22T22:05:20.251Z,103398.06
2023-01-22T22:07:41.877Z,103398.28
2023-01-22T22:10:04.978Z,103399.97
2023-01-22T22:12:27.753Z,103405.59
2023-01-22T22:14:49.334Z,103406.66
2023-01-22T22:17:11.037Z,103407.69
2023-01-22T22:19:32.687Z,103411.88
2023-01-22T22:21:54.374Z,103410.41
2023-01-22T22:24:16.074Z,103411.88
2023-01-22T22:26:38.891Z,103411.88
2023-01-22T22:29:00.904Z,103411.66
2023-01-22T22:31:23.411Z,103410.22
2023-01-22T22:33:54.250Z,103417.75
2023-01-22T22:36:19.704Z,103412.50
2023-01-22T22:38:41.922Z,103420.25
2023-01-22T22:41:11.055Z,103424.84
2023-01-22T22:43:39.225Z,103423.00
2023-01-22T22:46:06.506Z,103427.16
2023-01-22T22:48:28.243Z,103433.44
2023-01-22T22:50:50.054Z,103430.72
2023-01-22T22:53:11.926Z,103427.56
2023-01-22T22:55:33.560Z,103435.50
2023-01-22T22:57:55.341Z,103433.63
2023-01-22T23:00:17.941Z,103436.13
2023-01-22T23:02:42.645Z,103430.47
2023-01-22T23:05:04.564Z,103438.44
2023-01-22T23:07:26.239Z,103443.88
2023-01-22T23:09:48.128Z,103438.19
2023-01-22T23:12:09.726Z,103438.81
2023-01-22T23:14:31.387Z,103446.56
2023-01-22T23:16:55.571Z,103449.06
2023-01-22T23:19:24.804Z,103444.25
2023-01-22T23:21:54.744Z,103439.63
2023-01-22T23:24:16.748Z,103434.81
2023-01-22T23:26:40.741Z,103440.69
2023-01-22T23:29:08.292Z,103436.91
2023-01-22T23:31:32.917Z,103445.69
2023-01-22T23:33:56.525Z,103434.81
2023-01-22T23:36:18.339Z,103431.88
2023-01-22T23:38:40.784Z,103437.53
2023-01-22T23:41:07.609Z,103431.06
2023-01-22T23:43:30.259Z,103439.81
2023-01-22T23:45:52.328Z,103440.44
2023-01-22T23:48:14.035Z,103439.41
2023-01-22T23:50:35.657Z,103438.34
2023-01-22T23:52:57.231Z,103431.84
2023-01-22T23:55:18.982Z,103441.69
2023-01-22T23:57:40.678Z,103441.50
